Time;durP1;ratioP1;P1;durP2;ratioP2;P2;SDS_P1;SDS_P2;PMS_P1;PMS_P2;Temp;Humidity;BMP_temperature;BMP_pressure;BME280_temperature;BME280_humidity;BME280_pressure;Samples;Min_cycle;Max_cycle;Signal;HPM_P1;HPM_P2
2022/04/20 00:02:24;;;;;;;6.80;2.97;;;8.70;7.80;;;;;;5002514;28;20454;-82
2022/04/20 00:04:53;;;;;;;14.93;3.13;;;8.50;8.50;;;;;;5002386;28;20454;-82
2022/04/20 00:07:20;;;;;;;7.93;4.03;;;8.40;8.90;;;;;;5002777;28;20521;-82
2022/04/20 00:09:47;;;;;;;9.63;3.80;;;8.50;8.60;;;;;;5001304;28;20997;-82
2022/04/20 00:12:14;;;;;;;6.27;3.10;;;8.50;8.30;;;;;;5002558;28;20485;-82
2022/04/20 00:14:41;;;;;;;6.67;3.03;;;8.50;8.00;;;;;;5001963;28;20650;-82
2022/04/20 00:17:07;;;;;;;5.30;2.50;;;8.60;8.10;;;;;;5002065;28;20464;-82
2022/04/20 00:19:36;;;;;;;7.10;2.93;;;8.50;8.60;;;;;;5000508;28;20454;-82
2022/04/20 00:22:02;;;;;;;8.53;2.80;;;8.30;8.80;;;;;;5001291;28;20466;-82
2022/04/20 00:24:29;;;;;;;5.60;2.97;;;8.40;8.90;;;;;;5001688;28;20454;-82
2022/04/20 00:26:56;;;;;;;5.37;2.87;;;8.40;9.00;;;;;;5001505;28;20454;-82
2022/04/20 00:29:22;;;;;;;5.50;2.90;;;8.40;8.90;;;;;;5000364;28;20482;-82
2022/04/20 00:31:49;;;;;;;5.67;3.00;;;8.40;8.20;;;;;;5001230;28;20537;-81
2022/04/20 00:34:16;;;;;;;5.10;2.47;;;8.60;8.50;;;;;;5001047;28;20455;-82
2022/04/20 00:36:44;;;;;;;7.57;2.97;;;8.50;9.20;;;;;;5001612;28;20454;-82
2022/04/20 00:39:11;;;;;;;6.13;3.00;;;8.50;8.60;;;;;;5000237;28;20675;-82
2022/04/20 00:41:38;;;;;;;7.00;2.73;;;8.60;8.40;;;;;;5001251;28;20453;-82
2022/04/20 00:44:06;;;;;;;8.37;3.80;;;8.60;8.10;;;;;;5001925;28;20454;-82
2022/04/20 00:46:33;;;;;;;5.10;2.70;;;8.50;8.90;;;;;;5000956;28;20978;-82
2022/04/20 00:49:00;;;;;;;5.70;2.97;;;8.50;8.80;;;;;;5001082;28;20864;-82
2022/04/20 00:51:27;;;;;;;6.30;2.97;;;8.20;9.70;;;;;;5001541;28;20454;-82
2022/04/20 00:53:59;;;;;;;5.70;3.03;;;8.20;10.20;;;;;;5001291;28;20454;-82
2022/04/20 00:56:25;;;;;;;5.83;2.77;;;8.20;10.40;;;;;;5002079;28;20821;-82
2022/04/20 00:58:53;;;;;;;6.90;3.33;;;8.30;9.90;;;;;;5000296;28;20474;-82
2022/04/20 01:01:20;;;;;;;9.00;2.93;;;7.90;10.90;;;;;;5000669;28;20465;-82
2022/04/20 01:03:47;;;;;;;6.40;3.10;;;7.80;11.80;;;;;;5000548;28;20450;-82
2022/04/20 01:06:13;;;;;;;7.93;2.93;;;7.80;11.80;;;;;;5000821;28;20453;-82
2022/04/20 01:08:40;;;;;;;5.87;3.10;;;7.70;11.80;;;;;;5000250;28;20474;-82
2022/04/20 01:11:08;;;;;;;7.00;3.80;;;7.50;13.50;;;;;;5001239;28;20493;-82
2022/04/20 01:13:35;;;;;;;6.40;3.30;;;7.20;15.10;;;;;;5001187;28;20450;-82
2022/04/20 01:16:01;;;;;;;5.80;2.93;;;6.90;18.50;;;;;;5001016;28;20454;-82
2022/04/20 01:18:28;;;;;;;16.03;3.80;;;6.70;18.90;;;;;;5000191;28;20485;-82
2022/04/20 01:20:56;;;;;;;7.00;3.40;;;6.60;21.30;;;;;;5001138;28;20461;-82
2022/04/20 01:23:23;;;;;;;7.87;3.23;;;6.30;23.30;;;;;;5000261;28;20986;-82
2022/04/20 01:25:50;;;;;;;6.50;3.83;;;6.30;25.30;;;;;;5001230;28;20458;-82
2022/04/20 01:28:17;;;;;;;6.53;3.73;;;6.10;27.60;;;;;;4999747;28;20480;-82
2022/04/20 01:30:44;;;;;;;6.40;3.83;;;5.90;29.10;;;;;;5000818;28;20481;-82
2022/04/20 01:33:10;;;;;;;6.63;3.30;;;5.90;27.00;;;;;;5000090;28;20466;-82
2022/04/20 01:35:37;;;;;;;6.70;3.50;;;5.90;27.20;;;;;;5000550;28;20454;-82
2022/04/20 01:38:05;;;;;;;6.30;3.10;;;6.00;27.00;;;;;;5000826;28;20489;-82
2022/04/20 01:40:32;;;;;;;6.83;2.80;;;6.00;26.30;;;;;;4999868;28;20477;-82
2022/04/20 01:42:59;;;;;;;7.53;3.13;;;6.10;25.70;;;;;;4999719;28;20447;-82
2022/04/20 01:45:26;;;;;;;5.93;3.27;;;6.10;25.10;;;;;;5000744;28;20454;-82
2022/04/20 01:47:53;;;;;;;6.53;4.43;;;6.20;25.50;;;;;;5024703;23;20482;-79
2022/04/20 01:50:20;;;;;;;7.17;3.40;;;6.10;25.40;;;;;;5014714;28;20445;-79
2022/04/20 01:52:49;;;;;;;10.60;4.90;;;6.10;26.30;;;;;;5014924;28;20457;-81
2022/04/20 01:55:17;;;;;;;6.90;3.17;;;6.20;26.50;;;;;;5015710;28;20488;-81
2022/04/20 01:57:44;;;;;;;5.90;3.10;;;6.00;27.30;;;;;;5014836;28;20449;-78
2022/04/20 02:00:12;;;;;;;8.00;3.77;;;5.80;28.20;;;;;;5014762;28;20476;-80
2022/04/20 02:02:38;;;;;;;5.83;3.50;;;5.60;30.30;;;;;;5000334;28;20454;-80
2022/04/20 02:05:07;;;;;;;6.10;3.70;;;5.50;33.20;;;;;;4995235;28;20493;-79
2022/04/20 02:07:34;;;;;;;7.93;3.97;;;5.40;35.90;;;;;;5006439;28;20460;-80
2022/04/20 02:10:03;;;;;;;6.90;4.70;;;5.10;37.30;;;;;;5013823;28;20453;-79
2022/04/20 02:12:31;;;;;;;10.07;4.43;;;5.00;40.50;;;;;;5002370;28;20524;-79
2022/04/20 02:14:57;;;;;;;6.20;3.97;;;4.80;42.30;;;;;;4995577;28;20473;-80
2022/04/20 02:17:24;;;;;;;7.00;4.20;;;4.70;45.60;;;;;;5004897;28;20453;-80
2022/04/20 02:19:51;;;;;;;7.00;4.40;;;4.60;47.00;;;;;;5013437;28;20492;-80
2022/04/20 02:22:18;;;;;;;8.50;5.20;;;4.50;48.80;;;;;;5005199;28;20454;-80
2022/04/20 02:24:45;;;;;;;6.27;4.00;;;4.40;51.70;;;;;;4995013;28;20481;-79
2022/04/20 02:27:13;;;;;;;7.53;5.07;;;4.30;53.20;;;;;;5002399;28;20456;-79
2022/04/20 02:29:41;;;;;;;6.77;4.50;;;4.40;53.90;;;;;;5013686;28;20478;-79
2022/04/20 02:32:09;;;;;;;8.97;3.93;;;4.20;54.10;;;;;;5010593;28;20454;-79
2022/04/20 02:34:36;;;;;;;7.40;4.70;;;4.40;55.70;;;;;;4994977;28;21005;-79
2022/04/20 02:37:04;;;;;;;8.43;5.50;;;4.20;57.00;;;;;;4995258;28;20465;-79
2022/04/20 02:39:31;;;;;;;7.60;6.47;;;4.20;61.00;;;;;;4994108;28;20477;-80
2022/04/20 02:41:58;;;;;;;8.80;7.40;;;4.10;64.00;;;;;;4994615;28;20471;-79
2022/04/20 02:44:24;;;;;;;8.10;6.30;;;4.10;65.60;;;;;;4995180;28;20871;-80
2022/04/20 02:46:52;;;;;;;7.70;5.43;;;4.00;66.20;;;;;;4995565;28;20451;-80
2022/04/20 02:49:21;;;;;;;7.63;6.03;;;4.00;64.90;;;;;;4993813;28;20482;-79
2022/04/20 02:51:48;;;;;;;7.63;6.30;;;3.90;63.30;;;;;;5002413;28;20462;-78
2022/04/20 02:54:14;;;;;;;8.20;5.30;;;3.90;66.40;;;;;;4978996;28;20447;-79
2022/04/20 02:56:41;;;;;;;7.93;5.07;;;3.80;65.80;;;;;;4985015;28;20461;-80
2022/04/20 02:59:08;;;;;;;7.97;6.53;;;3.80;66.10;;;;;;5017214;28;20473;-79
2022/04/20 03:01:35;;;;;;;12.03;7.83;;;3.70;68.00;;;;;;5016710;28;20488;-80
2022/04/20 03:04:03;;;;;;;8.20;7.00;;;3.70;71.50;;;;;;4999973;28;20460;-80
2022/04/20 03:06:30;;;;;;;9.37;8.47;;;3.70;70.80;;;;;;5000634;28;20465;-80
2022/04/20 03:08:57;;;;;;;7.93;7.20;;;3.80;71.90;;;;;;5017847;28;20510;-80
2022/04/20 03:11:24;;;;;;;7.20;6.50;;;3.60;71.20;;;;;;5016825;28;20969;-79
2022/04/20 03:13:51;;;;;;;11.83;8.63;;;3.60;70.20;;;;;;4998693;28;20454;-80
2022/04/20 03:16:18;;;;;;;8.10;7.30;;;3.60;72.50;;;;;;4998270;28;20648;-80
2022/04/20 03:18:45;;;;;;;12.33;10.70;;;3.50;72.40;;;;;;5016557;28;20473;-80
2022/04/20 03:21:13;;;;;;;10.90;10.10;;;3.40;72.80;;;;;;5017418;28;20483;-80
2022/04/20 03:23:39;;;;;;;13.33;12.40;;;3.50;74.10;;;;;;4997729;28;20461;-79
2022/04/20 03:26:08;;;;;;;13.37;12.37;;;3.40;75.00;;;;;;4997089;28;20481;-79
2022/04/20 03:28:34;;;;;;;14.37;13.33;;;3.30;76.10;;;;;;5013312;28;20469;-79
2022/04/20 03:31:01;;;;;;;16.50;15.20;;;3.20;78.50;;;;;;5016292;28;20452;-79
2022/04/20 03:33:28;;;;;;;22.20;21.00;;;3.20;79.90;;;;;;4998906;28;20461;-79
2022/04/20 03:35:55;;;;;;;17.53;16.23;;;3.10;80.90;;;;;;4996158;28;20847;-79
2022/04/20 03:38:23;;;;;;;13.57;12.63;;;3.10;81.60;;;;;;4996880;28;20470;-79
2022/04/20 03:40:50;;;;;;;12.27;11.10;;;3.00;82.40;;;;;;4996222;28;21040;-79
2022/04/20 03:43:17;;;;;;;24.17;22.63;;;3.00;83.30;;;;;;5010910;28;20528;-79
2022/04/20 03:45:43;;;;;;;33.50;31.43;;;3.20;85.00;;;;;;5016125;28;20816;-79
2022/04/20 03:48:10;;;;;;;39.70;37.77;;;3.10;85.70;;;;;;4996747;28;20834;-78
2022/04/20 03:50:37;;;;;;;40.30;38.50;;;3.10;84.70;;;;;;4996138;28;20457;-79
2022/04/20 03:53:04;;;;;;;32.47;30.87;;;3.10;85.50;;;;;;5011970;28;20457;-79
2022/04/20 03:55:32;;;;;;;34.97;33.17;;;3.00;86.10;;;;;;5016340;28;20475;-79
2022/04/20 03:57:59;;;;;;;32.87;31.20;;;2.90;87.80;;;;;;5000165;28;20504;-79
2022/04/20 04:00:26;;;;;;;45.20;43.10;;;2.80;88.20;;;;;;4995194;28;20485;-79
2022/04/20 04:02:53;;;;;;;57.87;55.37;;;2.90;89.00;;;;;;5009622;28;20449;-79
2022/04/20 04:05:20;;;;;;;78.37;75.47;;;2.90;89.70;;;;;;5007243;28;20450;-79
2022/04/20 04:08:06;;;;;;;;;;;;;;;;;;;;;
2022/04/20 04:10:34;;;;;;;84.03;80.93;;;2.90;90.20;;;;;;4999565;28;20454;-80
2022/04/20 04:13:01;;;;;;;93.57;89.33;;;2.80;90.80;;;;;;5015076;28;20484;-80
2022/04/20 04:15:28;;;;;;;110.70;106.63;;;2.80;91.70;;;;;;5002177;28;20480;-80
2022/04/20 04:17:58;;;;;;;149.87;144.47;;;2.80;91.70;;;;;;4996914;28;21803;-80
2022/04/20 04:20:25;;;;;;;120.50;115.97;;;2.70;92.10;;;;;;4998244;28;20482;-80
2022/04/20 04:22:52;;;;;;;93.20;89.87;;;2.60;91.80;;;;;;5005372;28;20729;-80
2022/04/20 04:25:19;;;;;;;114.67;110.43;;;2.60;92.10;;;;;;4995715;28;20461;-79
2022/04/20 04:27:48;;;;;;;132.00;127.10;;;2.60;92.30;;;;;;4997858;28;20457;-80
2022/04/20 04:30:14;;;;;;;144.53;139.00;;;2.60;93.10;;;;;;4995157;28;20483;-79
2022/04/20 04:32:41;;;;;;;146.33;141.03;;;2.60;92.90;;;;;;4998780;28;20461;-81
2022/04/20 04:35:11;;;;;;;189.03;182.20;;;2.70;93.20;;;;;;4999000;28;20464;-82
2022/04/20 04:37:39;;;;;;;202.90;195.90;;;2.60;93.50;;;;;;5003504;28;20451;-79
2022/04/20 04:40:07;;;;;;;164.87;158.87;;;2.70;93.60;;;;;;4997763;28;20934;-80
2022/04/20 04:42:34;;;;;;;134.83;129.83;;;2.60;94.10;;;;;;4997940;28;20484;-80
2022/04/20 04:50:27;;;;;;;128.63;123.63;;;2.70;94.30;;;;;;4994410;28;20508;-80
2022/04/20 04:52:54;;;;;;;169.87;163.57;;;2.60;94.60;;;;;;4997233;28;20449;-80
2022/04/20 04:55:21;;;;;;;153.10;147.43;;;2.80;95.10;;;;;;5010984;28;20501;-80
2022/04/20 04:57:48;;;;;;;154.23;148.33;;;2.70;95.30;;;;;;4994253;28;20443;-79
2022/04/20 05:00:16;;;;;;;159.23;152.80;;;2.80;95.40;;;;;;4995329;28;20482;-80
2022/04/20 05:02:43;;;;;;;119.77;114.77;;;2.80;95.30;;;;;;4997021;28;20454;-80
2022/04/20 05:05:10;;;;;;;119.03;114.63;;;3.00;95.30;;;;;;5001680;28;20850;-80
2022/04/20 05:07:36;;;;;;;113.83;109.00;;;2.90;95.30;;;;;;5016641;28;20461;-79
2022/04/20 05:10:03;;;;;;;103.40;99.37;;;3.00;95.10;;;;;;4997433;28;20457;-80
2022/04/20 05:12:37;;;;;;;101.53;97.50;;;3.10;94.90;;;;;;4997553;28;20458;-80
2022/04/20 05:15:04;;;;;;;128.00;122.30;;;3.10;95.20;;;;;;4997678;28;20461;-80
2022/04/20 05:17:32;;;;;;;107.03;102.53;;;3.20;94.70;;;;;;4998738;28;20457;-80
2022/04/20 05:19:59;;;;;;;86.13;82.53;;;3.30;94.50;;;;;;5011604;28;20515;-80
2022/04/20 05:22:26;;;;;;;195.47;188.17;;;3.30;94.60;;;;;;5007398;28;20511;-80
2022/04/20 05:24:53;;;;;;;230.53;221.53;;;3.60;96.60;;;;;;5014306;28;20963;-80
2022/04/20 05:27:19;;;;;;;51.73;49.13;;;4.00;99.90;;;;;;5016881;28;20457;-80
2022/04/20 05:29:46;;;;;;;10.53;9.50;;;4.40;98.10;;;;;;5012576;28;20485;-80
2022/04/20 05:32:13;;;;;;;8.20;5.13;;;5.00;92.40;;;;;;5003745;28;20449;-80
2022/04/20 05:34:41;;;;;;;7.60;4.83;;;5.50;84.90;;;;;;5003976;28;20450;-80
2022/04/20 05:42:39;;;;;;;7.87;5.40;;;6.90;64.30;;;;;;4998287;28;21069;-82
2022/04/20 05:45:07;;;;;;;7.67;4.50;;;7.20;60.20;;;;;;5002515;28;20446;-80
2022/04/20 05:47:34;;;;;;;13.13;5.53;;;7.50;58.40;;;;;;5007807;28;20469;-80
2022/04/20 05:50:02;;;;;;;8.70;5.20;;;7.60;54.80;;;;;;4995286;28;20486;-81
2022/04/20 05:52:28;;;;;;;8.10;4.63;;;7.90;53.90;;;;;;4994670;28;20446;-81
2022/04/20 05:54:57;;;;;;;10.93;5.30;;;8.00;53.70;;;;;;5000034;28;20449;-81
2022/04/20 05:57:23;;;;;;;7.23;4.37;;;8.00;53.00;;;;;;4996729;28;20449;-80
2022/04/20 05:59:50;;;;;;;8.10;4.97;;;7.90;52.50;;;;;;5003003;28;20466;-80
2022/04/20 06:02:17;;;;;;;8.67;5.13;;;7.80;53.80;;;;;;4999822;28;20501;-80
2022/04/20 06:04:44;;;;;;;8.00;4.70;;;7.70;55.40;;;;;;4997640;28;20454;-80
2022/04/20 06:07:12;;;;;;;12.77;5.37;;;7.70;54.60;;;;;;5000759;28;20451;-81
2022/04/20 06:09:38;;;;;;;9.60;4.73;;;7.70;53.00;;;;;;4997926;28;20900;-80
2022/04/20 06:12:07;;;;;;;8.27;4.80;;;7.50;52.90;;;;;;5012518;28;20449;-81
2022/04/20 06:14:34;;;;;;;8.50;5.00;;;7.70;51.50;;;;;;5016969;28;20455;-80
2022/04/20 06:17:00;;;;;;;9.50;5.03;;;7.70;53.20;;;;;;4998784;28;20509;-81
2022/04/20 06:19:27;;;;;;;9.83;4.43;;;7.70;51.90;;;;;;4997208;28;20474;-80
2022/04/20 06:21:54;;;;;;;11.43;4.30;;;7.80;48.10;;;;;;4996985;28;20474;-80
2022/04/20 06:24:22;;;;;;;6.50;3.83;;;8.10;46.90;;;;;;4996557;28;20453;-80
2022/04/20 06:26:49;;;;;;;6.20;4.13;;;8.30;42.90;;;;;;5005692;28;20454;-80
2022/04/20 06:29:15;;;;;;;6.57;3.50;;;8.50;37.60;;;;;;5001498;28;20474;-80
2022/04/20 06:31:44;;;;;;;8.00;3.90;;;8.70;36.50;;;;;;4997249;28;20943;-80
2022/04/20 06:34:14;;;;;;;8.23;4.00;;;8.80;36.10;;;;;;5006496;28;20459;-80
2022/04/20 06:36:40;;;;;;;6.67;3.80;;;8.80;38.30;;;;;;4998909;28;20506;-81
2022/04/20 06:39:07;;;;;;;6.70;3.73;;;9.00;39.20;;;;;;4999837;28;20518;-81
2022/04/20 06:41:35;;;;;;;8.97;4.40;;;9.10;35.20;;;;;;5010507;28;20474;-81
2022/04/20 06:44:02;;;;;;;6.63;3.87;;;9.20;38.40;;;;;;5013395;28;20848;-80
2022/04/20 06:46:29;;;;;;;18.30;4.90;;;9.10;35.20;;;;;;5009678;28;20457;-80
2022/04/20 06:48:59;;;;;;;6.47;3.50;;;9.20;34.70;;;;;;5000490;28;20994;-80
2022/04/20 06:51:26;;;;;;;7.70;4.10;;;9.40;35.50;;;;;;5010893;28;20881;-80
2022/04/20 06:59:25;;;;;;;38.63;5.97;;;9.70;29.50;;;;;;4994725;28;20465;-80
2022/04/20 07:01:51;;;;;;;13.87;4.77;;;9.80;27.60;;;;;;5004526;28;20476;-80
2022/04/20 07:04:22;;;;;;;7.87;4.03;;;9.80;27.60;;;;;;5012617;28;20882;-80
2022/04/20 07:06:51;;;;;;;7.47;3.83;;;10.00;26.00;;;;;;5001806;28;20561;-80
2022/04/20 07:09:18;;;;;;;7.73;3.60;;;10.10;27.00;;;;;;4997958;28;20872;-79
2022/04/20 07:11:46;;;;;;;6.60;3.30;;;10.10;27.00;;;;;;5005222;28;20951;-79
2022/04/20 07:14:14;;;;;;;10.17;4.13;;;10.30;23.80;;;;;;4994892;28;20457;-79
2022/04/20 07:16:41;;;;;;;7.37;3.60;;;10.40;22.50;;;;;;5002783;28;20464;-79
2022/04/20 07:19:08;;;;;;;13.00;4.20;;;10.50;23.40;;;;;;4999320;28;21014;-80
2022/04/20 07:21:34;;;;;;;7.30;3.57;;;10.80;21.80;;;;;;4997973;28;20478;-79
2022/04/20 07:24:01;;;;;;;11.43;4.20;;;10.80;20.20;;;;;;4998885;28;20457;-79
2022/04/20 07:26:28;;;;;;;5.50;3.40;;;10.80;21.20;;;;;;5011036;28;20453;-80
2022/04/20 07:28:56;;;;;;;16.60;3.70;;;11.00;18.20;;;;;;5010743;28;20476;-80
2022/04/20 07:31:23;;;;;;;11.30;3.90;;;11.00;19.40;;;;;;4994375;28;20445;-79
2022/04/20 07:33:49;;;;;;;10.30;3.70;;;11.20;23.60;;;;;;5003215;28;20446;-79
2022/04/20 07:36:16;;;;;;;8.23;3.63;;;11.40;17.40;;;;;;5006013;28;20450;-79
2022/04/20 07:38:45;;;;;;;5.80;2.93;;;11.50;17.60;;;;;;4999517;28;20480;-80
2022/04/20 07:41:11;;;;;;;6.13;3.43;;;11.50;18.50;;;;;;5001373;28;20536;-80
2022/04/20 07:43:38;;;;;;;6.77;3.50;;;11.60;19.10;;;;;;5001781;28;20458;-80
2022/04/20 07:46:06;;;;;;;8.70;3.87;;;11.70;15.20;;;;;;5001729;28;20476;-80
2022/04/20 07:48:33;;;;;;;8.13;3.43;;;11.80;15.10;;;;;;5026950;23;20492;-82
2022/04/20 07:51:00;;;;;;;6.20;3.13;;;12.00;13.90;;;;;;5020243;28;20980;-83
2022/04/20 07:53:27;;;;;;;10.50;3.87;;;12.20;13.30;;;;;;5020817;28;20445;-84
2022/04/20 07:55:54;;;;;;;8.47;2.90;;;12.50;13.10;;;;;;5021541;28;20487;-83
2022/04/20 07:58:22;;;;;;;9.73;3.00;;;12.80;10.70;;;;;;5020723;28;20457;-83
2022/04/20 08:00:51;;;;;;;5.80;2.87;;;13.20;9.70;;;;;;5021374;28;20445;-84
2022/04/20 08:03:20;;;;;;;6.73;3.50;;;13.70;6.00;;;;;;5020938;28;20556;-83
2022/04/20 08:05:49;;;;;;;14.80;3.53;;;14.20;8.00;;;;;;5021111;28;20453;-83
2022/04/20 08:08:17;;;;;;;7.53;2.67;;;14.20;1.00;;;;;;5019893;28;20464;-83
2022/04/20 08:10:44;;;;;;;6.23;3.20;;;14.60;2.20;;;;;;5020901;28;20487;-83
2022/04/20 08:15:55;;;;;;;6.83;2.77;;;15.10;1.00;;;;;;5020802;28;20987;-82
2022/04/20 08:18:24;;;;;;;6.33;3.07;;;15.50;1.00;;;;;;5018213;28;20507;-83
2022/04/20 08:20:50;;;;;;;11.03;2.80;;;15.60;1.00;;;;;;5019324;28;20465;-82
2022/04/20 08:23:18;;;;;;;5.10;2.73;;;15.90;1.00;;;;;;5020802;28;20481;-84
2022/04/20 08:25:45;;;;;;;6.20;2.63;;;15.90;1.00;;;;;;5020230;28;20463;-83
2022/04/20 08:28:13;;;;;;;5.70;2.67;;;16.20;1.00;;;;;;5018911;28;20461;-83
2022/04/20 08:30:40;;;;;;;12.00;3.10;;;16.30;1.00;;;;;;5019228;28;20454;-83
2022/04/20 08:33:08;;;;;;;5.67;2.90;;;16.00;1.00;;;;;;5018541;28;20450;-83
2022/04/20 08:35:37;;;;;;;5.97;2.70;;;16.20;1.00;;;;;;5018073;28;20459;-83
2022/04/20 08:38:05;;;;;;;6.93;2.77;;;16.60;1.00;;;;;;5019998;28;20466;-83
2022/04/20 08:40:33;;;;;;;6.83;2.77;;;17.00;1.00;;;;;;5018892;28;20460;-84
2022/04/20 08:43:01;;;;;;;5.30;2.60;;;16.80;1.00;;;;;;5019283;28;20474;-84
2022/04/20 08:45:29;;;;;;;6.13;3.07;;;17.00;1.00;;;;;;5019010;28;20471;-83
2022/04/20 08:47:58;;;;;;;6.77;2.70;;;17.10;1.00;;;;;;5019428;28;20484;-83
2022/04/20 08:50:26;;;;;;;5.70;2.47;;;17.10;1.00;;;;;;5018897;28;20541;-83
2022/04/20 08:52:56;;;;;;;10.60;2.50;;;17.30;1.00;;;;;;5017780;28;20934;-83
2022/04/20 08:55:23;;;;;;;5.33;2.43;;;17.40;1.00;;;;;;5018686;28;20466;-83
2022/04/20 08:57:52;;;;;;;5.30;2.37;;;17.60;1.00;;;;;;5019288;28;20448;-83
2022/04/20 09:00:21;;;;;;;6.17;2.43;;;17.60;1.00;;;;;;5017561;28;20478;-82
2022/04/20 09:02:50;;;;;;;6.90;2.77;;;17.80;1.00;;;;;;5019328;28;20488;-83
2022/04/20 09:05:17;;;;;;;5.70;2.63;;;18.00;1.00;;;;;;5019630;28;20453;-83
2022/04/20 09:07:44;;;;;;;6.50;2.57;;;18.30;1.00;;;;;;5018935;28;20483;-82
2022/04/20 09:10:12;;;;;;;7.33;2.60;;;18.40;1.00;;;;;;5018043;28;20473;-83
2022/04/20 09:12:42;;;;;;;9.63;2.87;;;18.40;1.00;;;;;;5019247;28;20463;-83
2022/04/20 09:15:10;;;;;;;6.13;2.43;;;18.30;1.00;;;;;;5019389;28;20517;-83
2022/04/20 09:17:41;;;;;;;6.03;2.40;;;17.70;1.00;;;;;;5019845;28;20550;-84
2022/04/20 09:20:10;;;;;;;8.93;2.80;;;18.50;1.00;;;;;;5018161;28;20505;-83
2022/04/20 09:22:37;;;;;;;6.70;2.90;;;18.00;1.00;;;;;;5019516;28;20481;-83
2022/04/20 09:25:07;;;;;;;6.00;2.73;;;18.00;1.00;;;;;;5019564;28;20454;-84
2022/04/20 09:27:37;;;;;;;6.57;2.90;;;18.60;1.00;;;;;;5019625;28;20459;-83
2022/04/20 09:30:09;;;;;;;6.17;2.50;;;18.20;1.00;;;;;;5018363;28;20475;-83
2022/04/20 09:32:38;;;;;;;5.37;2.47;;;18.60;1.00;;;;;;5019291;28;20456;-84
2022/04/20 09:35:08;;;;;;;6.13;2.80;;;18.90;1.00;;;;;;5019070;28;20450;-84
2022/04/20 09:37:36;;;;;;;5.30;2.40;;;19.20;1.00;;;;;;5018466;28;20418;-84
2022/04/20 09:40:05;;;;;;;5.60;2.77;;;19.00;1.00;;;;;;5018725;28;20489;-83
2022/04/20 09:42:34;;;;;;;4.93;2.43;;;19.00;1.00;;;;;;5017938;28;20561;-83
2022/04/20 09:45:04;;;;;;;5.40;2.83;;;18.60;1.00;;;;;;5018133;28;20532;-83
2022/04/20 09:50:22;;;;;;;6.60;2.67;;;18.10;1.00;;;;;;5017777;28;20477;-83
2022/04/20 09:52:49;;;;;;;6.43;2.60;;;18.00;1.00;;;;;;5017250;28;20456;-84
2022/04/20 09:55:26;;;;;;;7.90;2.90;;;18.60;1.00;;;;;;5018795;28;20453;-84
2022/04/20 09:57:53;;;;;;;6.70;2.90;;;18.70;1.00;;;;;;5018738;28;20447;-84
2022/04/20 10:00:23;;;;;;;6.70;2.47;;;18.60;1.00;;;;;;5017366;28;20476;-83
2022/04/20 10:02:52;;;;;;;6.40;2.67;;;19.30;1.00;;;;;;5018342;28;20503;-83
2022/04/20 10:05:21;;;;;;;7.13;2.40;;;19.10;1.00;;;;;;5017730;28;20461;-83
2022/04/20 10:07:47;;;;;;;7.37;2.73;;;19.50;1.00;;;;;;5018343;28;20465;-83
2022/04/20 10:10:14;;;;;;;6.57;2.47;;;19.40;1.00;;;;;;5018235;28;20478;-83
2022/04/20 10:12:43;;;;;;;7.53;2.90;;;20.00;1.00;;;;;;5018743;28;20535;-82
2022/04/20 10:17:58;;;;;;;6.00;2.60;;;20.00;1.00;;;;;;5018550;28;20437;-83
2022/04/20 10:20:26;;;;;;;10.63;2.73;;;20.60;1.00;;;;;;5018014;28;20486;-83
2022/04/20 10:22:54;;;;;;;5.43;2.20;;;20.80;1.00;;;;;;5018770;28;20552;-84
2022/04/20 10:25:22;;;;;;;8.77;2.47;;;20.90;1.00;;;;;;5018579;28;20455;-83
2022/04/20 10:28:04;;;;;;;7.93;3.00;;;21.20;1.00;;;;;;5019086;28;20457;-83
2022/04/20 10:30:44;;;;;;;6.03;2.93;;;21.30;1.00;;;;;;5018239;28;20516;-84
2022/04/20 10:33:19;;;;;;;6.20;2.87;;;20.90;1.00;;;;;;5018613;28;20450;-84
2022/04/20 10:35:55;;;;;;;6.37;2.93;;;21.20;1.00;;;;;;5018550;28;20459;-83
2022/04/20 10:38:22;;;;;;;8.50;2.67;;;20.90;1.00;;;;;;5016400;28;20496;-84
2022/04/20 10:41:02;;;;;;;7.47;2.43;;;20.70;1.00;;;;;;5018474;28;20980;-84
2022/04/20 10:43:31;;;;;;;5.40;2.60;;;21.10;1.00;;;;;;5018823;28;20512;-84
2022/04/20 10:46:11;;;;;;;6.07;2.20;;;21.60;1.00;;;;;;5018593;28;20441;-84
2022/04/20 10:48:58;;;;;;;8.87;3.33;;;20.60;1.00;;;;;;5016825;28;20564;-84
2022/04/20 10:51:37;;;;;;;6.20;2.47;;;20.50;1.00;;;;;;5016480;28;20454;-84
2022/04/20 10:54:26;;;;;;;5.70;2.20;;;21.30;1.00;;;;;;5018155;28;20507;-84
2022/04/20 10:57:11;;;;;;;5.23;2.13;;;21.90;1.00;;;;;;5018544;28;20560;-84
2022/04/20 10:59:39;;;;;;;5.90;2.30;;;22.00;1.00;;;;;;5018373;28;20471;-84
2022/04/20 11:02:07;;;;;;;5.60;2.30;;;22.50;1.00;;;;;;5018288;28;20453;-83
2022/04/20 11:04:39;;;;;;;5.03;2.23;;;22.50;1.00;;;;;;5017532;28;20461;-83
2022/04/20 11:07:27;;;;;;;6.60;2.80;;;22.20;1.00;;;;;;5017949;28;20803;-84
2022/04/20 11:10:06;;;;;;;6.70;2.30;;;22.00;1.00;;;;;;5006575;28;20472;-84
2022/04/20 11:18:45;;;;;;;5.47;2.60;;;22.00;1.00;;;;;;4995647;28;20431;-88
2022/04/20 11:21:23;;;;;;;9.10;2.60;;;21.60;1.00;;;;;;5003896;28;20448;-85
2022/04/20 11:23:51;;;;;;;4.83;2.17;;;21.60;1.00;;;;;;5013146;28;20480;-85
2022/04/20 11:26:20;;;;;;;9.20;2.83;;;22.50;1.00;;;;;;5003137;28;20489;-86
2022/04/20 11:28:48;;;;;;;5.60;2.43;;;23.00;1.00;;;;;;5001399;28;21025;-87
2022/04/20 11:31:15;;;;;;;6.57;2.30;;;22.50;1.00;;;;;;5012732;28;20451;-87
2022/04/20 11:33:42;;;;;;;6.30;2.60;;;21.90;1.00;;;;;;5012099;28;20463;-84
2022/04/20 11:36:12;;;;;;;7.77;3.10;;;22.30;1.00;;;;;;4998406;28;20203;-83
2022/04/20 11:38:41;;;;;;;6.60;2.83;;;22.50;1.00;;;;;;4998059;28;20480;-84
2022/04/20 11:41:09;;;;;;;5.13;2.17;;;23.90;1.00;;;;;;4998441;28;20489;-84
2022/04/20 11:43:38;;;;;;;6.40;2.17;;;24.00;1.00;;;;;;4999304;28;20917;-84
2022/04/20 11:46:15;;;;;;;6.90;2.50;;;24.40;1.00;;;;;;4999225;28;20454;-84
2022/04/20 11:48:56;;;;;;;5.53;2.30;;;24.60;1.00;;;;;;5000088;28;20484;-84
2022/04/20 11:51:25;;;;;;;6.33;2.50;;;24.10;1.00;;;;;;4998633;28;20453;-83
2022/04/20 11:53:54;;;;;;;6.27;2.60;;;23.70;1.00;;;;;;4999189;28;20522;-84
2022/04/20 11:56:51;;;;;;;4.87;2.20;;;23.80;1.00;;;;;;4998955;28;20457;-84
2022/04/20 11:59:21;;;;;;;7.10;2.50;;;23.70;1.00;;;;;;4998139;28;20478;-84
2022/04/20 12:01:48;;;;;;;4.63;2.27;;;24.00;1.00;;;;;;4998993;28;20508;-84
2022/04/20 12:04:17;;;;;;;5.10;2.40;;;24.70;1.00;;;;;;4999393;28;20477;-84
2022/04/20 12:06:49;;;;;;;6.10;2.10;;;24.50;1.00;;;;;;4999757;28;20517;-84
2022/04/20 12:09:45;;;;;;;;;;;;;;;;;;;;;
2022/04/20 12:12:13;;;;;;;4.63;2.03;;;26.20;1.00;;;;;;4999323;28;20445;-84
2022/04/20 12:14:44;;;;;;;5.27;2.20;;;25.40;1.00;;;;;;4998563;28;20519;-84
2022/04/20 12:17:20;;;;;;;6.90;2.40;;;24.80;1.00;;;;;;5000200;28;20479;-85
2022/04/20 12:19:47;;;;;;;4.87;2.40;;;24.30;1.00;;;;;;4999086;28;20481;-84
2022/04/20 12:22:15;;;;;;;5.70;2.20;;;24.50;1.00;;;;;;4999044;28;20457;-84
2022/04/20 12:24:43;;;;;;;5.90;2.80;;;25.70;1.00;;;;;;4996940;28;20454;-84
2022/04/20 12:27:18;;;;;;;5.20;2.40;;;25.60;1.00;;;;;;5002701;28;20428;-84
2022/04/20 12:29:45;;;;;;;6.00;3.20;;;25.40;1.00;;;;;;5020394;28;20800;-86
2022/04/20 12:32:12;;;;;;;13.00;3.30;;;24.50;1.00;;;;;;5015951;28;20449;-87
2022/04/20 12:34:54;;;;;;;6.93;3.03;;;23.90;1.00;;;;;;5000470;28;20458;-87
2022/04/20 12:37:29;;;;;;;6.40;3.33;;;23.70;1.00;;;;;;4999537;28;20452;-86
2022/04/20 12:39:58;;;;;;;7.53;2.60;;;23.80;1.00;;;;;;4997775;28;20497;-88
2022/04/20 12:42:25;;;;;;;5.93;2.90;;;23.50;1.00;;;;;;5004697;28;20461;-85
2022/04/20 12:44:53;;;;;;;11.87;3.87;;;22.50;1.00;;;;;;5002628;28;20450;-87
2022/04/20 12:47:36;;;;;;;7.00;3.50;;;22.00;1.00;;;;;;4996177;28;20453;-86
2022/04/20 12:50:17;;;;;;;6.73;2.50;;;21.40;1.00;;;;;;4996916;28;20504;-87
2022/04/20 12:53:00;;;;;;;9.33;2.97;;;21.20;1.00;;;;;;4997292;28;20471;-87
2022/04/20 13:04:22;;;;;;;7.40;2.10;;;24.30;1.00;;;;;;5002454;28;20485;-83
2022/04/20 13:06:49;;;;;;;5.07;2.43;;;23.70;1.00;;;;;;5006129;28;20431;-84
2022/04/20 13:09:15;;;;;;;5.50;2.90;;;22.40;1.00;;;;;;5018665;28;20476;-84
2022/04/20 13:11:43;;;;;;;5.87;2.80;;;22.40;1.00;;;;;;5011482;28;20638;-84
2022/04/20 13:14:10;;;;;;;5.63;3.00;;;22.50;1.00;;;;;;4999790;28;20457;-84
2022/04/20 13:16:37;;;;;;;6.93;2.90;;;23.60;1.00;;;;;;5003495;28;20460;-84
2022/04/20 13:19:04;;;;;;;5.60;2.80;;;24.30;1.00;;;;;;5016138;28;20455;-84
2022/04/20 13:21:31;;;;;;;6.10;3.30;;;25.20;1.00;;;;;;5013665;28;20481;-84
2022/04/20 13:23:58;;;;;;;7.10;2.97;;;25.40;1.00;;;;;;4995845;28;20478;-84
2022/04/20 13:29:12;;;;;;;7.40;2.93;;;26.00;1.00;;;;;;5018728;28;20499;-85
2022/04/20 13:31:39;;;;;;;5.70;2.77;;;26.30;1.00;;;;;;5017476;28;20446;-84
2022/04/20 13:34:06;;;;;;;7.53;2.77;;;25.70;1.00;;;;;;5000535;28;20455;-84
2022/04/20 13:36:32;;;;;;;7.40;2.53;;;25.80;1.00;;;;;;5002565;28;20966;-86
2022/04/20 13:38:59;;;;;;;6.23;2.70;;;27.10;1.00;;;;;;5015673;28;20472;-84
2022/04/20 13:41:26;;;;;;;4.83;2.43;;;27.70;1.00;;;;;;5014892;28;20460;-83
2022/04/20 13:43:53;;;;;;;6.70;2.87;;;26.80;1.00;;;;;;5017361;28;20477;-83